Time;durP1;ratioP1;P1;durP2;ratioP2;P2;SDS_P1;SDS_P2;PMS_P1;PMS_P2;Temp;Humidity;BMP_temperature;BMP_pressure;BME280_temperature;BME280_humidity;BME280_pressure;Samples;Min_cycle;Max_cycle;Signal;HPM_P1;HPM_P2
2022/08/18 00:00:30;;;;;;;9.88;6.45;;;;;;;-145.69;100.00;70881.09;5075505;28;20226;-76
2022/08/18 00:03:00;;;;;;;9.32;6.60;;;;;;;-145.69;100.00;70883.06;5074502;28;20237;-75
2022/08/18 00:05:28;;;;;;;9.85;6.57;;;;;;;-145.69;100.00;70889.03;5074285;28;20206;-75
2022/08/18 00:07:55;;;;;;;10.60;6.22;;;;;;;-145.69;100.00;70891.03;5075464;28;20211;-75
2022/08/18 00:10:21;;;;;;;9.93;6.25;;;;;;;-145.69;100.00;70893.03;5075563;28;20226;-75
2022/08/18 00:12:47;;;;;;;8.60;6.00;;;;;;;-145.69;100.00;70889.03;5075527;28;20198;-75
2022/08/18 00:15:16;;;;;;;10.77;6.00;;;;;;;-145.69;100.00;70889.03;5075402;28;20208;-75
2022/08/18 00:17:43;;;;;;;9.35;6.78;;;;;;;-145.69;100.00;70893.03;5075084;28;20434;-76
2022/08/18 00:20:14;;;;;;;8.20;6.10;;;;;;;-145.69;100.00;70895.00;5074691;28;20565;-76
2022/08/18 00:22:42;;;;;;;10.20;5.68;;;;;;;-145.69;100.00;70899.00;5074539;28;20199;-76
2022/08/18 00:25:10;;;;;;;11.32;6.18;;;;;;;-145.69;100.00;70908.94;5075397;28;20260;-75
2022/08/18 00:27:38;;;;;;;8.20;5.57;;;;;;;-145.69;100.00;70910.94;5075209;28;20583;-76
2022/08/18 00:30:08;;;;;;;10.82;6.93;;;;;;;-145.69;100.00;70908.94;5075135;28;20231;-76
2022/08/18 00:32:37;;;;;;;8.32;6.60;;;;;;;-145.69;100.00;70902.97;5075000;28;20684;-76
2022/08/18 00:35:07;;;;;;;8.95;6.40;;;;;;;-145.69;100.00;70904.97;5075220;28;20194;-75
2022/08/18 00:37:33;;;;;;;13.05;7.32;;;;;;;-145.69;100.00;70895.00;5075062;28;20206;-75
2022/08/18 00:40:02;;;;;;;15.70;6.53;;;;;;;-145.69;100.00;70887.06;5075075;28;20211;-75
2022/08/18 00:42:30;;;;;;;12.95;6.65;;;;;;;-145.69;100.00;70891.03;5074945;28;20249;-75
2022/08/18 00:44:59;;;;;;;13.27;6.85;;;;;;;-145.69;100.00;70885.06;5074711;28;20716;-75
2022/08/18 00:47:27;;;;;;;9.75;7.30;;;;;;;-145.69;100.00;70887.06;5074522;28;20231;-75
2022/08/18 00:49:53;;;;;;;9.90;6.72;;;;;;;-145.69;100.00;70893.03;5074746;28;20309;-74
2022/08/18 00:52:22;;;;;;;11.95;6.35;;;;;;;-145.69;100.00;70891.03;5074893;28;20205;-75
2022/08/18 00:54:52;;;;;;;9.93;6.78;;;;;;;-145.69;100.00;70897.00;5074798;28;20569;-75
2022/08/18 00:57:22;;;;;;;11.82;6.75;;;;;;;-145.69;100.00;70904.97;5074685;28;20210;-75
2022/08/18 00:59:54;;;;;;;9.68;6.70;;;;;;;-145.69;100.00;70891.03;5074499;28;20205;-75
2022/08/18 01:02:25;;;;;;;14.82;6.30;;;;;;;-145.69;100.00;70897.00;5074691;28;20297;-75
2022/08/18 01:04:55;;;;;;;11.27;7.00;;;;;;;-145.69;100.00;70893.03;5074620;28;20199;-75
2022/08/18 01:07:28;;;;;;;10.50;6.95;;;;;;;-145.69;100.00;70904.97;5074537;28;20198;-74
2022/08/18 01:09:58;;;;;;;9.52;6.70;;;;;;;-145.69;100.00;70902.97;5071300;28;20303;-75
2022/08/18 01:12:26;;;;;;;11.15;6.28;;;;;;;-145.69;100.00;70916.91;5054127;28;20203;-75
2022/08/18 01:14:54;;;;;;;10.75;6.30;;;;;;;-145.69;100.00;70924.84;5072565;28;20198;-75
2022/08/18 01:23:00;;;;;;;9.07;6.50;;;;;;;-145.69;100.00;70946.75;5073816;28;20325;-75
2022/08/18 01:28:10;;;;;;;10.60;7.05;;;;;;;-145.69;100.00;70948.72;5074047;28;20198;-75
2022/08/18 01:30:48;;;;;;;11.25;7.25;;;;;;;-145.69;100.00;70956.69;5073393;28;20230;-74
2022/08/18 01:33:15;;;;;;;10.73;7.53;;;;;;;-145.69;100.00;70952.72;5073711;28;20229;-75
2022/08/18 01:35:47;;;;;;;10.20;7.65;;;;;;;-145.69;100.00;70946.75;5073943;28;20202;-75
2022/08/18 01:38:15;;;;;;;10.68;7.07;;;;;;;-145.69;100.00;70946.75;5073765;28;20677;-76
2022/08/18 01:40:41;;;;;;;11.18;7.93;;;;;;;-145.69;100.00;70930.81;5073784;28;20226;-76
2022/08/18 01:43:08;;;;;;;10.52;7.30;;;;;;;-145.69;100.00;70930.81;5073769;28;20207;-76
2022/08/18 01:45:34;;;;;;;10.63;7.53;;;;;;;-145.69;100.00;70926.84;5073255;28;20203;-74
2022/08/18 01:48:03;;;;;;;11.50;7.18;;;;;;;-145.69;100.00;70932.81;5073555;28;20234;-74
2022/08/18 01:50:33;;;;;;;11.27;7.38;;;;;;;-145.69;100.00;70926.84;5073583;28;20430;-75
2022/08/18 01:52:59;;;;;;;11.10;7.60;;;;;;;-145.69;100.00;70920.88;5073655;28;20206;-75
2022/08/18 01:55:27;;;;;;;14.57;8.77;;;;;;;-145.69;100.00;70922.88;5073580;28;20569;-76
2022/08/18 01:57:54;;;;;;;14.57;9.07;;;;;;;-145.69;100.00;70908.94;5072866;28;20230;-74
2022/08/18 02:00:21;;;;;;;13.50;9.05;;;;;;;-145.69;100.00;70902.97;5073261;28;20222;-74
2022/08/18 02:02:50;;;;;;;13.25;8.43;;;;;;;-145.69;100.00;70900.97;5072801;28;20194;-75
2022/08/18 02:05:23;;;;;;;12.52;8.32;;;;;;;-145.69;100.00;70902.97;5073280;28;20201;-75
2022/08/18 02:07:49;;;;;;;13.40;8.57;;;;;;;-145.69;100.00;70897.00;5073273;28;20202;-75
2022/08/18 02:10:18;;;;;;;12.20;8.23;;;;;;;-145.69;100.00;70895.00;5072926;28;20233;-74
2022/08/18 02:12:46;;;;;;;17.25;9.15;;;;;;;-145.69;100.00;70887.06;5072889;28;20203;-75
2022/08/18 02:15:13;;;;;;;14.13;9.63;;;;;;;-145.69;100.00;70883.06;5073030;28;20198;-75
2022/08/18 02:17:41;;;;;;;13.68;9.02;;;;;;;-145.69;100.00;70881.09;5073061;28;20205;-75
2022/08/18 02:20:10;;;;;;;14.48;9.55;;;;;;;-145.69;100.00;70877.09;5073155;28;20210;-75
2022/08/18 02:22:37;;;;;;;14.60;8.57;;;;;;;-145.69;100.00;70869.16;5073561;28;20206;-75
2022/08/18 02:25:04;;;;;;;16.90;9.35;;;;;;;-145.69;100.00;70857.22;5072724;28;20199;-74
2022/08/18 02:27:31;;;;;;;15.55;9.02;;;;;;;-145.69;100.00;70853.22;5073111;28;20202;-74
2022/08/18 02:30:01;;;;;;;12.85;9.55;;;;;;;-145.69;100.00;70849.25;5073013;28;20440;-74
2022/08/18 02:32:27;;;;;;;12.60;8.85;;;;;;;-145.69;100.00;70849.25;5072940;28;20657;-76
2022/08/18 02:34:54;;;;;;;12.70;9.13;;;;;;;-145.69;100.00;70845.28;5072754;28;20198;-76
2022/08/18 02:37:21;;;;;;;13.10;8.80;;;;;;;-145.69;100.00;70843.28;5072800;28;20561;-76
2022/08/18 02:39:48;;;;;;;12.98;8.88;;;;;;;-145.69;100.00;70833.34;5072799;28;20207;-75
2022/08/18 02:42:15;;;;;;;11.60;8.50;;;;;;;-145.69;100.00;70837.31;5072997;28;20205;-75
2022/08/18 02:44:41;;;;;;;11.85;7.93;;;;;;;-145.69;100.00;70829.34;5072613;28;20203;-75
2022/08/18 02:47:09;;;;;;;11.60;8.68;;;;;;;-145.69;100.00;70823.38;5072258;28;20237;-75
2022/08/18 02:49:36;;;;;;;11.70;8.13;;;;;;;-145.69;100.00;70817.41;5072469;28;20576;-75
2022/08/18 02:52:03;;;;;;;11.68;7.53;;;;;;;-145.69;100.00;70811.44;5071971;28;20666;-75
2022/08/18 02:54:30;;;;;;;11.50;7.95;;;;;;;-145.69;100.00;70817.41;5073108;28;20205;-75
2022/08/18 02:56:56;;;;;;;11.20;7.18;;;;;;;-145.69;100.00;70809.47;5071258;28;20211;-75
2022/08/18 02:59:26;;;;;;;8.65;7.22;;;;;;;-145.69;100.00;70813.44;5071695;28;20207;-76
2022/08/18 03:01:55;;;;;;;11.88;7.75;;;;;;;-145.69;100.00;70809.47;5072691;28;20205;-76
2022/08/18 03:04:26;;;;;;;11.30;8.45;;;;;;;-145.69;100.00;70801.50;5072640;28;20681;-75
2022/08/18 03:06:52;;;;;;;12.55;7.70;;;;;;;-145.69;100.00;70793.53;5072597;28;20295;-76
2022/08/18 03:09:18;;;;;;;15.10;8.45;;;;;;;-145.69;100.00;70789.56;5074251;28;20234;-76
2022/08/18 03:11:46;;;;;;;11.77;8.02;;;;;;;-145.69;100.00;70789.56;5076725;28;20195;-76
2022/08/18 03:14:13;;;;;;;10.98;7.82;;;;;;;-145.69;100.00;70793.53;5065250;28;20666;-75
2022/08/18 03:16:40;;;;;;;9.40;7.07;;;;;;;-145.69;100.00;70791.56;5056641;28;20673;-76
2022/08/18 03:19:07;;;;;;;11.43;7.65;;;;;;;-145.69;100.00;70783.59;5056487;28;20195;-75
2022/08/18 03:21:37;;;;;;;11.85;8.13;;;;;;;-145.69;100.00;70783.59;5056910;28;20206;-76
2022/08/18 03:24:04;;;;;;;16.20;7.70;;;;;;;-145.69;100.00;70771.66;5056411;28;20195;-75
2022/08/18 03:26:32;;;;;;;14.18;8.20;;;;;;;-145.69;100.00;70775.63;5054572;28;20210;-75
2022/08/18 03:28:59;;;;;;;12.63;8.38;;;;;;;-145.69;100.00;70787.56;5056423;28;20199;-75
2022/08/18 03:31:28;;;;;;;14.85;9.10;;;;;;;-145.69;100.00;70793.53;5056162;28;20234;-75
2022/08/18 03:33:56;;;;;;;11.70;8.77;;;;;;;-145.69;100.00;70793.53;5056096;28;20203;-76
2022/08/18 03:36:25;;;;;;;12.57;7.97;;;;;;;-145.69;100.00;70777.63;5056274;28;20206;-75
2022/08/18 03:38:54;;;;;;;12.30;8.52;;;;;;;-145.69;100.00;70781.59;5056340;28;20566;-76
2022/08/18 03:41:22;;;;;;;11.57;7.45;;;;;;;-145.69;100.00;70775.63;5056052;28;20678;-76
2022/08/18 03:43:49;;;;;;;10.43;7.50;;;;;;;-145.69;100.00;70789.56;5056140;28;20565;-75
2022/08/18 03:46:17;;;;;;;11.48;8.00;;;;;;;-145.69;100.00;70791.56;5055853;28;20209;-76
2022/08/18 03:48:46;;;;;;;13.77;7.68;;;;;;;-145.69;100.00;70789.56;5059742;28;20230;-75
2022/08/18 03:51:16;;;;;;;15.05;7.53;;;;;;;-145.69;100.00;70793.53;5075989;28;20590;-75
2022/08/18 03:53:43;;;;;;;12.93;7.82;;;;;;;-145.69;100.00;70803.50;5076002;28;20471;-76
2022/08/18 03:56:15;;;;;;;10.40;7.63;;;;;;;-145.69;100.00;70813.44;5075793;28;20199;-76
2022/08/18 03:58:44;;;;;;;9.27;7.25;;;;;;;-145.69;100.00;70809.47;5075740;28;20234;-76
2022/08/18 04:01:12;;;;;;;11.13;7.07;;;;;;;-145.69;100.00;70809.47;5075979;28;20285;-76
2022/08/18 04:03:38;;;;;;;11.90;7.40;;;;;;;-145.69;100.00;70803.50;5075844;28;20198;-76
2022/08/18 04:06:05;;;;;;;13.02;6.57;;;;;;;-145.69;100.00;70797.53;5075823;28;20207;-75
2022/08/18 04:08:31;;;;;;;11.98;7.85;;;;;;;-145.69;100.00;70795.53;5075657;28;20209;-77
2022/08/18 04:10:58;;;;;;;14.38;8.02;;;;;;;-145.69;100.00;70797.53;5075529;28;20222;-76
2022/08/18 04:13:25;;;;;;;10.50;6.97;;;;;;;-145.69;100.00;70793.53;5075401;28;20199;-76
2022/08/18 04:15:52;;;;;;;10.07;7.40;;;;;;;-145.69;100.00;70789.56;5075669;28;20203;-77
2022/08/18 04:18:18;;;;;;;13.15;8.35;;;;;;;-145.69;100.00;70797.53;5075560;28;20210;-77
2022/08/18 04:20:45;;;;;;;10.02;7.63;;;;;;;-145.69;100.00;70795.53;5074988;28;20203;-76
2022/08/18 04:23:13;;;;;;;10.63;7.80;;;;;;;-145.69;100.00;70793.53;5075358;28;20234;-75
2022/08/18 04:25:39;;;;;;;10.77;8.07;;;;;;;-145.69;100.00;70789.56;5075269;28;20198;-75
2022/08/18 04:28:06;;;;;;;12.60;8.38;;;;;;;-145.69;100.00;70789.56;5073234;28;20199;-75
2022/08/18 04:30:33;;;;;;;12.10;8.38;;;;;;;-145.69;100.00;70793.53;5074665;28;20257;-76
2022/08/18 04:33:01;;;;;;;11.68;8.82;;;;;;;-145.69;100.00;70785.59;5074151;28;20833;-75
2022/08/18 04:35:28;;;;;;;17.08;8.27;;;;;;;-145.69;100.00;70789.56;5075205;28;20241;-76
2022/08/18 04:37:55;;;;;;;13.23;7.80;;;;;;;-145.69;100.00;70795.53;5074897;28;20588;-75
2022/08/18 04:40:21;;;;;;;11.63;7.63;;;;;;;-145.69;100.00;70793.53;5074944;28;20199;-75
2022/08/18 04:42:48;;;;;;;8.82;6.78;;;;;;;-145.69;100.00;70807.47;5074877;28;20202;-77
2022/08/18 04:45:14;;;;;;;12.18;7.82;;;;;;;-145.69;100.00;70801.50;5073616;28;20206;-77
2022/08/18 04:47:42;;;;;;;11.18;7.15;;;;;;;-145.69;100.00;70805.47;5074808;28;20230;-76
2022/08/18 04:50:09;;;;;;;10.27;7.75;;;;;;;-145.69;100.00;70801.50;5074671;28;20218;-74
2022/08/18 04:55:20;;;;;;;10.68;7.35;;;;;;;-145.69;100.00;70789.56;5074822;28;20201;-76
2022/08/18 04:57:46;;;;;;;11.77;7.47;;;;;;;-145.69;100.00;70789.56;5074754;28;20203;-76
2022/08/18 05:00:13;;;;;;;9.60;7.00;;;;;;;-145.69;100.00;70777.63;5074808;28;20215;-75
2022/08/18 05:02:41;;;;;;;9.52;7.03;;;;;;;-145.69;100.00;70773.66;5073167;28;20207;-75
2022/08/18 05:05:08;;;;;;;11.00;7.97;;;;;;;-145.69;100.00;70761.72;5074639;28;20198;-76
2022/08/18 05:07:35;;;;;;;10.63;6.90;;;;;;;-145.69;100.00;70753.75;5074273;28;20203;-76
2022/08/18 05:10:02;;;;;;;11.87;8.33;;;;;;;-145.69;100.00;70755.75;5073476;28;20450;-76
2022/08/18 05:12:28;;;;;;;10.00;7.15;;;;;;;-145.69;100.00;70751.75;5074514;28;20206;-76
2022/08/18 05:14:56;;;;;;;11.23;7.10;;;;;;;-145.69;100.00;70747.78;5059833;28;20286;-76
2022/08/18 05:17:27;;;;;;;12.07;6.78;;;;;;;-145.69;100.00;70747.78;5054339;28;20203;-76
2022/08/18 05:19:55;;;;;;;9.68;6.35;;;;;;;-145.69;100.00;70741.81;5054218;28;20491;-76
2022/08/18 05:22:22;;;;;;;7.85;5.93;;;;;;;-145.69;100.00;70737.84;5054118;28;20208;-77
2022/08/18 05:24:48;;;;;;;11.75;5.57;;;;;;;-145.69;100.00;70737.84;5054285;28;20199;-76
2022/08/18 05:27:14;;;;;;;7.60;5.85;;;;;;;-145.69;100.00;70729.88;5054205;28;20208;-76
2022/08/18 05:29:41;;;;;;;7.88;5.07;;;;;;;-145.69;100.00;70721.91;5054213;28;20202;-75
2022/08/18 05:32:08;;;;;;;8.20;5.35;;;;;;;-145.69;100.00;70717.94;5053126;28;20226;-75
2022/08/18 05:34:35;;;;;;;6.93;5.30;;;;;;;-145.69;100.00;70708.00;5053965;28;20265;-76
2022/08/18 05:37:17;;;;;;;9.43;5.43;;;;;;;-145.69;100.00;70694.06;5053906;28;20203;-75
2022/08/18 05:39:56;;;;;;;8.90;5.43;;;;;;;-145.69;100.00;70682.13;5054075;28;20225;-76
2022/08/18 05:42:25;;;;;;;7.95;5.55;;;;;;;-145.69;100.00;70686.09;5053861;28;20421;-77
2022/08/18 05:44:53;;;;;;;11.88;5.30;;;;;;;-145.69;100.00;70674.16;5053837;28;20234;-75
2022/08/18 05:47:24;;;;;;;8.18;5.32;;;;;;;-145.69;100.00;70672.19;5053485;28;20270;-77
2022/08/18 05:49:52;;;;;;;7.28;5.70;;;;;;;-145.69;100.00;70686.09;5067042;28;20218;-76
2022/08/18 05:52:24;;;;;;;7.82;5.68;;;;;;;-145.69;100.00;70686.09;5073678;28;20209;-76
2022/08/18 05:57:44;;;;;;;10.60;6.05;;;;;;;-145.69;100.00;70678.16;5073516;28;20229;-75
2022/08/18 06:00:12;;;;;;;7.75;5.88;;;;;;;-145.69;100.00;70676.16;5073649;28;20199;-76
2022/08/18 06:02:46;;;;;;;9.95;5.72;;;;;;;-145.69;100.00;70660.25;5073471;28;20202;-76
2022/08/18 06:05:20;;;;;;;9.50;6.35;;;;;;;-145.69;100.00;70664.22;5073540;28;20201;-76
2022/08/18 06:07:52;;;;;;;8.55;5.75;;;;;;;-145.69;100.00;70670.19;5074463;28;20238;-77
2022/08/18 06:10:19;;;;;;;8.52;5.57;;;;;;;-145.69;100.00;70652.28;5072788;28;20230;-75
2022/08/18 06:12:50;;;;;;;8.80;6.32;;;;;;;-145.69;100.00;70652.28;5071675;28;20195;-75
2022/08/18 06:15:24;;;;;;;8.98;6.18;;;;;;;-145.69;100.00;70642.34;5072476;28;20198;-76
2022/08/18 06:18:10;;;;;;;9.20;6.05;;;;;;;-145.69;100.00;70626.41;5073180;28;20206;-76
2022/08/18 06:20:53;;;;;;;8.88;5.90;;;;;;;-145.69;100.00;70600.56;5073071;28;20226;-76
2022/08/18 06:23:31;;;;;;;8.75;6.15;;;;;;;-145.69;100.00;70596.59;5073296;28;20198;-75
2022/08/18 06:26:09;;;;;;;8.88;6.07;;;;;;;-145.69;100.00;70602.56;5072299;28;20194;-75
2022/08/18 06:28:49;;;;;;;9.55;6.25;;;;;;;-145.69;100.00;70616.47;5073124;28;20228;-76
2022/08/18 06:31:23;;;;;;;10.30;6.55;;;;;;;-145.69;100.00;70620.44;5072605;28;20279;-75
2022/08/18 06:34:02;;;;;;;11.60;6.60;;;;;;;-145.69;100.00;70634.38;5072374;28;20272;-75
2022/08/18 06:36:39;;;;;;;7.80;6.03;;;;;;;-145.69;100.00;70666.22;5072616;28;20199;-75
2022/08/18 06:39:17;;;;;;;8.65;5.35;;;;;;;-145.69;100.00;70717.94;5072631;28;20611;-74
2022/08/18 06:41:47;;;;;;;7.72;5.68;;;;;;;-145.69;100.00;70717.94;5072859;28;20206;-75
2022/08/18 06:44:21;;;;;;;7.75;5.80;;;;;;;-145.69;100.00;70723.91;5073057;28;20235;-76
2022/08/18 06:46:49;;;;;;;7.25;5.53;;;;;;;-145.69;100.00;70729.88;5072712;28;20688;-75
2022/08/18 06:49:28;;;;;;;11.10;6.13;;;;;;;-145.69;100.00;70717.94;5072793;28;20195;-76
2022/08/18 06:51:54;;;;;;;7.30;6.10;;;;;;;-145.69;100.00;70729.88;5072733;28;20704;-75
2022/08/18 06:54:29;;;;;;;9.05;5.82;;;;;;;-145.69;100.00;70721.91;5072895;28;20199;-76
2022/08/18 06:56:57;;;;;;;8.90;5.72;;;;;;;-145.69;100.00;70717.94;5072855;28;20198;-76
2022/08/18 06:59:27;;;;;;;7.25;5.70;;;;;;;-145.69;100.00;70706.00;5072034;28;20832;-77
2022/08/18 07:01:59;;;;;;;11.98;6.00;;;;;;;-145.69;100.00;70711.97;5072729;28;20207;-76
2022/08/18 07:04:41;;;;;;;9.00;5.85;;;;;;;-145.69;100.00;70690.09;5072627;28;20203;-74
2022/08/18 07:07:29;;;;;;;8.27;5.75;;;;;;;-145.69;100.00;70652.28;5072997;28;20252;-75
2022/08/18 07:09:56;;;;;;;10.80;6.25;;;;;;;-145.69;100.00;70652.28;5071467;28;20664;-75
2022/08/18 07:12:25;;;;;;;10.63;6.40;;;;;;;-145.69;100.00;70656.25;5054548;28;20235;-77
2022/08/18 07:14:55;;;;;;;9.77;6.18;;;;;;;-145.69;100.00;70616.47;5052883;28;20207;-76
2022/08/18 07:17:26;;;;;;;7.97;5.50;;;;;;;-145.69;100.00;70552.81;5052725;28;20203;-76
2022/08/18 07:19:57;;;;;;;11.50;5.88;;;;;;;-145.69;100.00;70499.09;5052729;28;20207;-75
2022/08/18 07:22:24;;;;;;;12.70;5.93;;;;;;;-145.69;100.00;70445.38;5052437;28;20235;-76
2022/08/18 07:24:54;;;;;;;11.50;5.78;;;;;;;-145.69;100.00;70407.59;5052410;28;20203;-75
2022/08/18 07:27:39;;;;;;;9.07;6.25;;;;;;;-145.69;100.00;70373.78;5052437;28;20658;-75
2022/08/18 07:30:09;;;;;;;10.38;6.57;;;;;;;-145.69;100.00;70427.47;5052413;28;20211;-75
2022/08/18 07:32:42;;;;;;;10.07;6.28;;;;;;;-145.69;100.00;70411.56;5052762;28;20231;-74
2022/08/18 07:35:10;;;;;;;10.27;7.13;;;;;;;-145.69;100.00;70427.47;5052438;28;20207;-75
2022/08/18 07:37:43;;;;;;;9.15;6.25;;;;;;;-145.69;100.00;70371.78;5052219;28;20202;-75
2022/08/18 07:40:19;;;;;;;10.20;7.03;;;;;;;-145.69;100.00;70395.66;5052544;28;20211;-75
2022/08/18 07:42:54;;;;;;;7.60;5.55;;;;;;;-145.69;100.00;70351.88;5052069;28;20199;-75
2022/08/18 07:45:26;;;;;;;10.35;6.57;;;;;;;-145.69;100.00;70353.88;5052408;28;20261;-75
2022/08/18 07:48:00;;;;;;;7.95;6.00;;;;;;;-145.69;100.00;70401.63;5051918;28;20756;-75
2022/08/18 07:50:28;;;;;;;10.15;6.22;;;;;;;-145.69;100.00;70383.72;5070301;28;20673;-75
2022/08/18 07:53:07;;;;;;;10.05;6.85;;;;;;;-145.69;100.00;70355.88;5072344;28;20209;-75
2022/08/18 07:55:35;;;;;;;9.35;5.68;;;;;;;-145.69;100.00;70355.88;5073987;28;20669;-76
2022/08/18 07:58:18;;;;;;;8.52;6.25;;;;;;;-145.69;100.00;70339.94;5075875;28;20565;-76
2022/08/18 08:00:51;;;;;;;12.90;7.47;;;;;;;-145.69;100.00;70385.69;5076026;28;20202;-76
2022/08/18 08:03:30;;;;;;;12.98;6.18;;;;;;;-145.69;100.00;70357.84;5075871;28;20561;-76
2022/08/18 08:06:03;;;;;;;9.35;6.50;;;;;;;-145.69;100.00;70381.72;5073855;28;20279;-76
2022/08/18 08:08:37;;;;;;;10.05;7.13;;;;;;;-145.69;100.00;70395.66;5057523;28;20570;-75
2022/08/18 08:11:15;;;;;;;10.00;6.63;;;;;;;-145.69;100.00;70415.53;5061300;28;20278;-77
2022/08/18 08:13:54;;;;;;;14.10;7.03;;;;;;;-145.69;100.00;70409.56;5055786;28;20195;-75
2022/08/18 08:16:34;;;;;;;9.05;6.28;;;;;;;-145.69;100.00;70369.78;5065976;28;20203;-75
2022/08/18 08:19:25;;;;;;;13.15;7.40;;;;;;;-145.69;100.00;70335.97;5055312;28;20238;-76
2022/08/18 08:22:00;;;;;;;12.45;7.82;;;;;;;-145.69;100.00;70341.94;5055464;28;20205;-76
2022/08/18 08:24:38;;;;;;;11.10;7.53;;;;;;;-145.69;100.00;70312.09;5055480;28;20214;-75
2022/08/18 08:27:14;;;;;;;9.82;7.13;;;;;;;-145.69;100.00;70310.09;5055406;28;20202;-75
2022/08/18 08:29:48;;;;;;;10.18;6.60;;;;;;;-145.69;100.00;70236.50;5055236;28;20212;-76
2022/08/18 08:32:21;;;;;;;8.32;6.30;;;;;;;-145.69;98.57;70220.59;5054934;28;20254;-76
2022/08/18 08:34:51;;;;;;;8.88;6.38;;;;;;;-145.69;100.00;70184.78;5055170;28;20238;-76
2022/08/18 08:37:24;;;;;;;10.48;6.78;;;;;;;-145.69;96.12;70176.81;5055071;28;20203;-76
2022/08/18 08:39:57;;;;;;;7.50;5.07;;;;;;;-145.69;91.64;70065.44;5055127;28;20215;-76
2022/08/18 08:42:31;;;;;;;8.15;4.82;;;;;;;-145.69;90.52;70069.41;5054984;28;20203;-76
2022/08/18 08:45:04;;;;;;;7.70;5.28;;;;;;;-145.69;97.20;70145.00;5054922;28;20566;-75
2022/08/18 08:47:34;;;;;;;7.78;4.88;;;;;;;-145.69;96.31;70107.19;5054814;28;20254;-76
2022/08/18 08:50:06;;;;;;;9.65;5.95;;;;;;;-145.69;94.34;70109.19;5069548;28;20199;-75
2022/08/18 08:52:41;;;;;;;8.30;6.18;;;;;;;-145.69;99.71;70174.84;5074752;28;20241;-76
2022/08/18 08:55:14;;;;;;;10.82;6.68;;;;;;;-145.69;98.71;70204.69;5074937;28;20199;-76
2022/08/18 08:57:45;;;;;;;8.63;6.15;;;;;;;-145.69;100.00;70216.63;5074718;28;20198;-75
2022/08/18 09:00:14;;;;;;;10.35;5.30;;;;;;;-145.69;99.51;70208.66;5075139;28;20202;-75
2022/08/18 09:02:57;;;;;;;8.25;5.68;;;;;;;-145.69;99.28;70258.38;5074583;28;20207;-77
2022/08/18 09:05:27;;;;;;;7.18;5.05;;;;;;;-145.69;98.07;70214.63;5074756;28;20306;-76
2022/08/18 09:08:13;;;;;;;10.05;6.13;;;;;;;-145.69;100.00;70254.41;5072731;28;20200;-76
2022/08/18 09:11:08;;;;;;;10.02;6.63;;;;;;;-145.69;98.27;70270.31;5054545;28;20199;-76
2022/08/18 09:13:58;;;;;;;8.50;5.53;;;;;;;-145.69;100.00;70238.50;5045493;28;20242;-75
2022/08/18 09:16:42;;;;;;;8.27;6.10;;;;;;;-145.69;96.59;70228.53;5052664;28;20554;-76
2022/08/18 09:19:31;;;;;;;9.98;6.55;;;;;;;-145.69;95.84;70198.72;5054418;28;20203;-76
2022/08/18 09:22:04;;;;;;;10.07;5.70;;;;;;;-145.69;94.45;70139.03;5058671;28;20202;-76
2022/08/18 09:24:38;;;;;;;8.57;5.28;;;;;;;-145.69;92.96;70121.13;5074552;28;20206;-76
2022/08/18 09:27:31;;;;;;;7.95;5.22;;;;;;;-145.69;87.09;70057.47;5074215;28;20209;-77
2022/08/18 09:30:00;;;;;;;6.32;5.00;;;;;;;-145.69;87.35;70011.72;5073975;28;20199;-75
2022/08/18 09:32:53;;;;;;;6.90;4.40;;;;;;;-145.69;84.67;69904.31;5073835;28;20230;-76
2022/08/18 09:35:47;;;;;;;8.27;4.55;;;;;;;-145.69;78.03;69882.44;5072436;28;20202;-76
2022/08/18 09:44:08;;;;;;;6.05;4.40;;;;;;;-145.69;80.64;69960.00;5073862;28;20198;-76
2022/08/18 09:46:51;;;;;;;7.43;4.60;;;;;;;-145.69;80.54;69918.22;5073685;28;20206;-77
2022/08/18 09:49:46;;;;;;;6.85;4.43;;;;;;;-145.69;79.07;69906.28;5073557;28;20594;-76
2022/08/18 09:52:55;;;;;;;5.22;4.13;;;;;;;-145.69;81.66;69906.28;5071936;28;20280;-76
2022/08/18 09:55:53;;;;;;;5.82;4.20;;;;;;;-145.69;80.90;69920.22;5071000;28;20199;-76
2022/08/18 09:58:36;;;;;;;5.00;3.78;;;;;;;-145.69;78.38;69870.50;5072994;28;20229;-76
2022/08/18 10:01:39;;;;;;;5.10;4.20;;;;;;;-145.69;79.91;69926.19;5073332;28;20672;-75
2022/08/18 10:04:31;;;;;;;6.68;4.53;;;;;;;-145.69;85.60;69973.94;5072686;28;20206;-77
2022/08/18 10:07:18;;;;;;;7.05;4.38;;;;;;;-145.69;84.63;69983.88;5072945;28;20206;-76
2022/08/18 10:09:57;;;;;;;6.70;4.68;;;;;;;-145.69;82.99;69991.84;5072780;28;20212;-75
2022/08/18 10:12:35;;;;;;;5.75;4.55;;;;;;;-145.69;81.83;69958.00;5073323;28;20233;-76
2022/08/18 10:15:23;;;;;;;8.65;4.32;;;;;;;-145.69;79.21;69896.34;5073399;28;20566;-76
2022/08/18 10:18:05;;;;;;;5.60;3.90;;;;;;;-145.69;81.08;69878.44;5072770;28;20221;-76
2022/08/18 10:20:42;;;;;;;6.78;3.90;;;;;;;-145.69;80.91;69914.25;5073416;28;20206;-76
2022/08/18 10:23:10;;;;;;;6.47;4.05;;;;;;;-145.69;78.64;69922.22;5072572;28;20214;-76
2022/08/18 10:25:40;;;;;;;6.18;4.00;;;;;;;-145.69;77.71;69914.25;5070025;28;20209;-75
2022/08/18 10:28:09;;;;;;;6.05;4.13;;;;;;;-145.69;80.62;69896.34;5071066;28;20433;-76
2022/08/18 10:30:59;;;;;;;4.70;3.35;;;;;;;-145.69;80.38;69842.66;5072655;28;20313;-76
2022/08/18 10:34:03;;;;;;;4.90;3.65;;;;;;;-145.69;78.27;69777.00;5073099;28;20249;-76
2022/08/18 10:36:41;;;;;;;4.78;3.25;;;;;;;-145.69;70.43;69773.03;5072881;28;20199;-75
2022/08/18 10:39:14;;;;;;;5.43;3.80;;;;;;;-145.69;73.04;69737.22;5073135;28;20297;-76
2022/08/18 10:41:52;;;;;;;5.63;3.78;;;;;;;-145.69;73.18;69735.25;5072944;28;20206;-75
2022/08/18 10:44:22;;;;;;;5.57;3.60;;;;;;;-145.69;68.41;69707.38;5072599;28;20198;-76
2022/08/18 10:46:48;;;;;;;4.22;3.45;;;;;;;-145.69;69.42;69641.75;5072509;28;20783;-75
2022/08/18 10:49:24;;;;;;;5.90;3.40;;;;;;;-145.69;70.13;69715.34;5072716;28;20652;-74
2022/08/18 10:52:02;;;;;;;7.28;3.50;;;;;;;-145.69;72.09;69741.19;5072889;28;20226;-76
2022/08/18 10:54:39;;;;;;;5.82;3.33;;;;;;;-145.69;72.09;69777.00;5072978;28;20202;-75
2022/08/18 10:57:13;;;;;;;5.50;3.35;;;;;;;-145.69;73.46;69826.72;5071660;28;20203;-75
2022/08/18 10:59:47;;;;;;;7.65;3.67;;;;;;;-145.69;73.04;69830.72;5072695;28;20600;-75
2022/08/18 11:02:31;;;;;;;4.60;3.53;;;;;;;-145.69;76.14;69814.78;5073006;28;20202;-75
2022/08/18 11:04:58;;;;;;;4.65;3.30;;;;;;;-145.69;75.69;69810.81;5072469;28;20199;-75
2022/08/18 11:07:28;;;;;;;4.35;3.65;;;;;;;-145.69;70.82;69828.72;5071390;28;20209;-75
2022/08/18 11:09:58;;;;;;;7.18;3.28;;;;;;;-145.69;74.91;69888.41;5071835;28;20237;-76
2022/08/18 11:12:59;;;;;;;4.63;3.50;;;;;;;-145.69;78.67;69910.28;5056964;28;20226;-75
2022/08/18 11:15:36;;;;;;;4.07;3.35;;;;;;;-145.69;78.84;69870.50;5052385;28;20207;-75
2022/08/18 11:18:17;;;;;;;5.18;3.65;;;;;;;-145.69;71.91;69806.84;5052562;28;20214;-75
2022/08/18 11:20:44;;;;;;;4.78;3.70;;;;;;;-145.69;71.81;69794.91;5052598;28;20217;-76
2022/08/18 11:23:14;;;;;;;6.80;3.83;;;;;;;-145.69;74.66;69814.78;5052465;28;20199;-75
2022/08/18 11:25:43;;;;;;;5.35;3.88;;;;;;;-145.69;76.23;69826.72;5051878;28;20204;-76
2022/08/18 11:28:16;;;;;;;6.57;4.15;;;;;;;-145.69;73.98;69818.78;5049537;28;20295;-76
2022/08/18 11:30:45;;;;;;;6.13;3.75;;;;;;;-145.69;76.59;69854.59;5054618;28;20203;-78
2022/08/18 11:33:15;;;;;;;5.43;3.88;;;;;;;-145.69;71.94;69824.75;5056033;28;20238;-77
2022/08/18 11:35:47;;;;;;;5.75;4.00;;;;;;;-145.69;74.02;69818.78;5056113;28;20644;-76
2022/08/18 11:38:15;;;;;;;6.68;3.45;;;;;;;-145.69;72.78;69794.91;5056268;28;20589;-75
2022/08/18 11:40:45;;;;;;;4.93;3.40;;;;;;;-145.69;75.27;69828.72;5056166;28;20681;-75
2022/08/18 11:43:16;;;;;;;4.95;3.80;;;;;;;-145.69;72.66;69822.75;5056078;28;20689;-77
2022/08/18 11:45:52;;;;;;;8.25;3.80;;;;;;;-145.69;71.37;69777.00;5055972;28;20203;-76
2022/08/18 11:48:21;;;;;;;3.67;3.30;;;;;;;-145.69;70.44;69782.97;5056377;28;20321;-76